sensor_id;sensor_type;location;lat;lon;timestamp;temperature;humidity
10316;DHT22;5203;48.976;8.306;2022-10-16T00:00:52;16.70;99.90
10316;DHT22;5203;48.976;8.306;2022-10-16T00:03:18;16.60;99.90
10316;DHT22;5203;48.976;8.306;2022-10-16T00:05:45;16.50;99.90
10316;DHT22;5203;48.976;8.306;2022-10-16T00:08:11;16.60;99.90
10316;DHT22;5203;48.976;8.306;2022-10-16T00:10:38;16.60;99.90
10316;DHT22;5203;48.976;8.306;2022-10-16T00:13:04;16.70;99.90
10316;DHT22;5203;48.976;8.306;2022-10-16T00:15:32;16.60;99.90
10316;DHT22;5203;48.976;8.306;2022-10-16T00:17:58;16.60;99.90
10316;DHT22;5203;48.976;8.306;2022-10-16T00:20:24;16.60;99.90
10316;DHT22;5203;48.976;8.306;2022-10-16T00:22:49;16.60;99.90
10316;DHT22;5203;48.976;8.306;2022-10-16T00:25:15;16.50;99.90
10316;DHT22;5203;48.976;8.306;2022-10-16T00:27:41;16.60;99.90
10316;DHT22;5203;48.976;8.306;2022-10-16T00:30:07;16.60;99.90
10316;DHT22;5203;48.976;8.306;2022-10-16T00:32:33;16.60;99.90
10316;DHT22;5203;48.976;8.306;2022-10-16T00:34:59;16.70;99.90
10316;DHT22;5203;48.976;8.306;2022-10-16T00:37:25;16.60;99.90
10316;DHT22;5203;48.976;8.306;2022-10-16T00:39:50;16.70;99.90
10316;DHT22;5203;48.976;8.306;2022-10-16T00:42:18;16.70;99.90
10316;DHT22;5203;48.976;8.306;2022-10-16T00:44:48;16.70;99.90
10316;DHT22;5203;48.976;8.306;2022-10-16T00:47:29;16.70;99.90
10316;DHT22;5203;48.976;8.306;2022-10-16T00:50:03;16.70;99.90
10316;DHT22;5203;48.976;8.306;2022-10-16T00:52:31;16.80;99.90
10316;DHT22;5203;48.976;8.306;2022-10-16T00:54:58;16.70;99.90
10316;DHT22;5203;48.976;8.306;2022-10-16T00:57:25;16.60;99.90
10316;DHT22;5203;48.976;8.306;2022-10-16T00:59:51;16.60;99.90
10316;DHT22;5203;48.976;8.306;2022-10-16T01:02:16;16.50;99.90
10316;DHT22;5203;48.976;8.306;2022-10-16T01:04:50;16.30;99.90
10316;DHT22;5203;48.976;8.306;2022-10-16T01:10:40;16.30;99.90
10316;DHT22;5203;48.976;8.306;2022-10-16T01:13:21;16.30;99.90
10316;DHT22;5203;48.976;8.306;2022-10-16T01:15:59;16.30;99.90
10316;DHT22;5203;48.976;8.306;2022-10-16T01:21:06;16.50;99.90
10316;DHT22;5203;48.976;8.306;2022-10-16T01:23:41;16.60;99.90
10316;DHT22;5203;48.976;8.306;2022-10-16T01:26:15;16.50;99.90
10316;DHT22;5203;48.976;8.306;2022-10-16T01:29:07;16.50;99.90
10316;DHT22;5203;48.976;8.306;2022-10-16T01:31:39;16.50;99.90
10316;DHT22;5203;48.976;8.306;2022-10-16T01:34:38;16.40;99.90
10316;DHT22;5203;48.976;8.306;2022-10-16T01:37:11;16.50;99.90
10316;DHT22;5203;48.976;8.306;2022-10-16T01:39:39;16.60;99.90
10316;DHT22;5203;48.976;8.306;2022-10-16T01:42:09;16.70;99.90
10316;DHT22;5203;48.976;8.306;2022-10-16T01:44:38;16.60;99.90
10316;DHT22;5203;48.976;8.306;2022-10-16T01:47:05;16.50;99.90
10316;DHT22;5203;48.976;8.306;2022-10-16T01:49:34;16.50;99.90
10316;DHT22;5203;48.976;8.306;2022-10-16T01:52:07;16.50;99.90
10316;DHT22;5203;48.976;8.306;2022-10-16T01:54:36;16.40;99.90
10316;DHT22;5203;48.976;8.306;2022-10-16T01:57:05;16.50;99.90
10316;DHT22;5203;48.976;8.306;2022-10-16T01:59:34;16.50;99.90
10316;DHT22;5203;48.976;8.306;2022-10-16T02:02:05;16.50;99.90
10316;DHT22;5203;48.976;8.306;2022-10-16T02:04:53;16.50;99.90
10316;DHT22;5203;48.976;8.306;2022-10-16T02:07:20;16.50;99.90
10316;DHT22;5203;48.976;8.306;2022-10-16T02:09:46;16.60;99.90
10316;DHT22;5203;48.976;8.306;2022-10-16T02:12:17;16.50;99.90
10316;DHT22;5203;48.976;8.306;2022-10-16T02:14:45;16.50;99.90
10316;DHT22;5203;48.976;8.306;2022-10-16T02:17:16;16.50;99.90
10316;DHT22;5203;48.976;8.306;2022-10-16T02:19:42;16.50;99.90
10316;DHT22;5203;48.976;8.306;2022-10-16T02:22:16;16.40;99.90
10316;DHT22;5203;48.976;8.306;2022-10-16T02:24:51;16.40;99.90
10316;DHT22;5203;48.976;8.306;2022-10-16T02:29:58;16.20;99.90
10316;DHT22;5203;48.976;8.306;2022-10-16T02:32:29;16.30;99.90
10316;DHT22;5203;48.976;8.306;2022-10-16T02:34:56;16.30;99.90
10316;DHT22;5203;48.976;8.306;2022-10-16T02:37:23;16.40;99.90
10316;DHT22;5203;48.976;8.306;2022-10-16T02:39:50;16.40;99.90
10316;DHT22;5203;48.976;8.306;2022-10-16T02:42:18;16.40;99.90
10316;DHT22;5203;48.976;8.306;2022-10-16T02:44:44;16.40;99.90
10316;DHT22;5203;48.976;8.306;2022-10-16T02:47:09;16.40;99.90
10316;DHT22;5203;48.976;8.306;2022-10-16T02:49:35;16.30;99.90
10316;DHT22;5203;48.976;8.306;2022-10-16T02:52:00;16.30;99.90
10316;DHT22;5203;48.976;8.306;2022-10-16T02:54:26;16.30;99.90
10316;DHT22;5203;48.976;8.306;2022-10-16T02:56:52;16.30;99.90
10316;DHT22;5203;48.976;8.306;2022-10-16T02:59:17;16.30;99.90
10316;DHT22;5203;48.976;8.306;2022-10-16T03:01:43;16.30;99.90
10316;DHT22;5203;48.976;8.306;2022-10-16T03:04:09;16.30;99.90
10316;DHT22;5203;48.976;8.306;2022-10-16T03:06:35;16.40;99.90
10316;DHT22;5203;48.976;8.306;2022-10-16T03:09:01;16.30;99.90
10316;DHT22;5203;48.976;8.306;2022-10-16T03:11:27;16.30;99.90
10316;DHT22;5203;48.976;8.306;2022-10-16T03:13:53;16.30;99.90
10316;DHT22;5203;48.976;8.306;2022-10-16T03:16:19;16.30;99.90
10316;DHT22;5203;48.976;8.306;2022-10-16T03:18:48;16.20;99.90
10316;DHT22;5203;48.976;8.306;2022-10-16T03:21:14;16.20;99.90
10316;DHT22;5203;48.976;8.306;2022-10-16T03:23:40;16.30;99.90
10316;DHT22;5203;48.976;8.306;2022-10-16T03:26:06;16.30;99.90
10316;DHT22;5203;48.976;8.306;2022-10-16T03:28:31;16.20;99.90
10316;DHT22;5203;48.976;8.306;2022-10-16T03:30:57;16.30;99.90
10316;DHT22;5203;48.976;8.306;2022-10-16T03:33:23;16.30;99.90
10316;DHT22;5203;48.976;8.306;2022-10-16T03:35:53;16.20;99.90
10316;DHT22;5203;48.976;8.306;2022-10-16T03:38:19;16.20;99.90
10316;DHT22;5203;48.976;8.306;2022-10-16T03:40:44;16.20;99.90
10316;DHT22;5203;48.976;8.306;2022-10-16T03:43:10;16.10;99.90
10316;DHT22;5203;48.976;8.306;2022-10-16T03:45:35;16.20;99.90
10316;DHT22;5203;48.976;8.306;2022-10-16T03:48:01;16.20;99.90
10316;DHT22;5203;48.976;8.306;2022-10-16T03:50:30;16.20;99.90
10316;DHT22;5203;48.976;8.306;2022-10-16T03:52:55;16.10;99.90
10316;DHT22;5203;48.976;8.306;2022-10-16T03:55:21;16.10;99.90
10316;DHT22;5203;48.976;8.306;2022-10-16T03:57:47;16.20;99.90
10316;DHT22;5203;48.976;8.306;2022-10-16T04:00:12;16.20;99.90
10316;DHT22;5203;48.976;8.306;2022-10-16T04:02:38;16.20;99.90
10316;DHT22;5203;48.976;8.306;2022-10-16T04:05:04;16.20;99.90
10316;DHT22;5203;48.976;8.306;2022-10-16T04:07:30;16.20;99.90
10316;DHT22;5203;48.976;8.306;2022-10-16T04:09:56;16.20;99.90
10316;DHT22;5203;48.976;8.306;2022-10-16T04:12:24;16.20;99.90
10316;DHT22;5203;48.976;8.306;2022-10-16T04:14:50;16.10;99.90
10316;DHT22;5203;48.976;8.306;2022-10-16T04:17:15;16.10;99.90
10316;DHT22;5203;48.976;8.306;2022-10-16T04:19:41;16.20;99.90
10316;DHT22;5203;48.976;8.306;2022-10-16T04:22:07;16.20;99.90
10316;DHT22;5203;48.976;8.306;2022-10-16T04:24:32;16.10;99.90
10316;DHT22;5203;48.976;8.306;2022-10-16T04:26:58;16.10;99.90
10316;DHT22;5203;48.976;8.306;2022-10-16T04:29:24;16.10;99.90
10316;DHT22;5203;48.976;8.306;2022-10-16T04:31:49;16.20;99.90
10316;DHT22;5203;48.976;8.306;2022-10-16T04:34:15;16.10;99.90
10316;DHT22;5203;48.976;8.306;2022-10-16T04:36:41;16.10;99.90
10316;DHT22;5203;48.976;8.306;2022-10-16T04:39:06;16.10;99.90
10316;DHT22;5203;48.976;8.306;2022-10-16T04:41:32;16.10;99.90
10316;DHT22;5203;48.976;8.306;2022-10-16T04:43:57;16.10;99.90
10316;DHT22;5203;48.976;8.306;2022-10-16T04:46:23;16.20;99.90
10316;DHT22;5203;48.976;8.306;2022-10-16T04:48:49;16.20;99.90
10316;DHT22;5203;48.976;8.306;2022-10-16T04:51:14;16.20;99.90
10316;DHT22;5203;48.976;8.306;2022-10-16T04:53:40;16.20;99.90
10316;DHT22;5203;48.976;8.306;2022-10-16T04:56:06;16.30;99.90
10316;DHT22;5203;48.976;8.306;2022-10-16T04:58:31;16.30;99.90
10316;DHT22;5203;48.976;8.306;2022-10-16T05:00:58;16.20;99.90
10316;DHT22;5203;48.976;8.306;2022-10-16T05:03:24;16.20;99.90
10316;DHT22;5203;48.976;8.306;2022-10-16T05:05:49;16.20;99.90
10316;DHT22;5203;48.976;8.306;2022-10-16T05:08:16;16.10;99.90
10316;DHT22;5203;48.976;8.306;2022-10-16T05:10:43;16.00;99.90
10316;DHT22;5203;48.976;8.306;2022-10-16T05:13:09;16.00;99.90
10316;DHT22;5203;48.976;8.306;2022-10-16T05:15:34;16.00;99.90
10316;DHT22;5203;48.976;8.306;2022-10-16T05:18:00;16.00;99.90
10316;DHT22;5203;48.976;8.306;2022-10-16T05:20:26;16.00;99.90
10316;DHT22;5203;48.976;8.306;2022-10-16T05:22:52;16.10;99.90
10316;DHT22;5203;48.976;8.306;2022-10-16T05:25:17;16.10;99.90
10316;DHT22;5203;48.976;8.306;2022-10-16T05:27:47;16.10;99.90
10316;DHT22;5203;48.976;8.306;2022-10-16T05:30:13;16.20;99.90
10316;DHT22;5203;48.976;8.306;2022-10-16T05:32:39;16.10;99.90
10316;DHT22;5203;48.976;8.306;2022-10-16T05:35:05;16.10;99.90
10316;DHT22;5203;48.976;8.306;2022-10-16T05:37:31;16.10;99.90
10316;DHT22;5203;48.976;8.306;2022-10-16T05:39:57;16.10;99.90
10316;DHT22;5203;48.976;8.306;2022-10-16T05:42:22;16.20;99.90
10316;DHT22;5203;48.976;8.306;2022-10-16T05:44:48;16.30;99.90
10316;DHT22;5203;48.976;8.306;2022-10-16T05:47:14;16.30;99.90
10316;DHT22;5203;48.976;8.306;2022-10-16T05:49:40;16.30;99.90
10316;DHT22;5203;48.976;8.306;2022-10-16T05:52:06;16.20;99.90
10316;DHT22;5203;48.976;8.306;2022-10-16T05:54:31;16.10;99.90
10316;DHT22;5203;48.976;8.306;2022-10-16T05:56:57;16.10;99.90
10316;DHT22;5203;48.976;8.306;2022-10-16T05:59:23;16.00;99.90
10316;DHT22;5203;48.976;8.306;2022-10-16T06:01:48;16.10;99.90
10316;DHT22;5203;48.976;8.306;2022-10-16T06:04:14;16.20;99.90
10316;DHT22;5203;48.976;8.306;2022-10-16T06:06:40;16.10;99.90
10316;DHT22;5203;48.976;8.306;2022-10-16T06:09:06;16.10;99.90
10316;DHT22;5203;48.976;8.306;2022-10-16T06:11:33;16.00;99.90
10316;DHT22;5203;48.976;8.306;2022-10-16T06:14:01;15.90;99.90
10316;DHT22;5203;48.976;8.306;2022-10-16T06:16:34;16.00;99.90
10316;DHT22;5203;48.976;8.306;2022-10-16T06:18:59;16.00;99.90
10316;DHT22;5203;48.976;8.306;2022-10-16T06:21:26;16.10;99.90
10316;DHT22;5203;48.976;8.306;2022-10-16T06:23:54;16.10;99.90
10316;DHT22;5203;48.976;8.306;2022-10-16T06:26:22;16.10;99.90
10316;DHT22;5203;48.976;8.306;2022-10-16T06:28:49;16.10;99.90
10316;DHT22;5203;48.976;8.306;2022-10-16T06:31:15;16.10;99.90
10316;DHT22;5203;48.976;8.306;2022-10-16T06:33:41;16.10;99.90
10316;DHT22;5203;48.976;8.306;2022-10-16T06:36:13;16.10;99.90
10316;DHT22;5203;48.976;8.306;2022-10-16T06:38:39;16.00;99.90
10316;DHT22;5203;48.976;8.306;2022-10-16T06:41:06;16.10;99.90
10316;DHT22;5203;48.976;8.306;2022-10-16T06:43:32;16.10;99.90
10316;DHT22;5203;48.976;8.306;2022-10-16T06:46:01;16.10;99.90
10316;DHT22;5203;48.976;8.306;2022-10-16T06:48:27;16.20;99.90
10316;DHT22;5203;48.976;8.306;2022-10-16T06:51:01;16.30;99.90
10316;DHT22;5203;48.976;8.306;2022-10-16T06:53:29;16.30;99.90
10316;DHT22;5203;48.976;8.306;2022-10-16T06:55:56;16.30;99.90
10316;DHT22;5203;48.976;8.306;2022-10-16T06:58:22;16.30;99.90
10316;DHT22;5203;48.976;8.306;2022-10-16T07:00:49;16.30;99.90
10316;DHT22;5203;48.976;8.306;2022-10-16T07:03:20;16.20;99.90
10316;DHT22;5203;48.976;8.306;2022-10-16T07:05:45;16.20;99.90
10316;DHT22;5203;48.976;8.306;2022-10-16T07:08:11;16.20;99.90
10316;DHT22;5203;48.976;8.306;2022-10-16T07:10:37;16.20;99.90
10316;DHT22;5203;48.976;8.306;2022-10-16T07:13:03;16.30;99.90
10316;DHT22;5203;48.976;8.306;2022-10-16T07:15:28;16.40;99.90
10316;DHT22;5203;48.976;8.306;2022-10-16T07:17:54;16.50;99.90
10316;DHT22;5203;48.976;8.306;2022-10-16T07:20:20;16.60;99.90
10316;DHT22;5203;48.976;8.306;2022-10-16T07:22:46;16.60;99.90
10316;DHT22;5203;48.976;8.306;2022-10-16T07:25:11;16.70;99.90
10316;DHT22;5203;48.976;8.306;2022-10-16T07:27:37;16.80;99.90
10316;DHT22;5203;48.976;8.306;2022-10-16T07:30:04;16.70;99.90
10316;DHT22;5203;48.976;8.306;2022-10-16T07:32:30;16.70;99.90
10316;DHT22;5203;48.976;8.306;2022-10-16T07:34:56;16.80;99.90
10316;DHT22;5203;48.976;8.306;2022-10-16T07:37:22;16.70;99.90
10316;DHT22;5203;48.976;8.306;2022-10-16T07:39:47;16.60;99.90
10316;DHT22;5203;48.976;8.306;2022-10-16T07:42:13;16.60;99.90
10316;DHT22;5203;48.976;8.306;2022-10-16T07:44:39;16.60;99.90
10316;DHT22;5203;48.976;8.306;2022-10-16T07:47:06;16.60;99.90
10316;DHT22;5203;48.976;8.306;2022-10-16T07:49:31;16.80;99.90
10316;DHT22;5203;48.976;8.306;2022-10-16T07:51:59;17.00;99.90
10316;DHT22;5203;48.976;8.306;2022-10-16T07:54:25;16.90;99.90
10316;DHT22;5203;48.976;8.306;2022-10-16T07:56:50;16.80;99.90
10316;DHT22;5203;48.976;8.306;2022-10-16T07:59:19;17.00;99.90
10316;DHT22;5203;48.976;8.306;2022-10-16T08:01:44;17.00;99.90
10316;DHT22;5203;48.976;8.306;2022-10-16T08:04:10;17.10;99.90
10316;DHT22;5203;48.976;8.306;2022-10-16T08:06:38;17.00;99.90
10316;DHT22;5203;48.976;8.306;2022-10-16T08:09:05;17.00;99.90
10316;DHT22;5203;48.976;8.306;2022-10-16T08:11:31;16.90;99.90
10316;DHT22;5203;48.976;8.306;2022-10-16T08:13:57;16.90;99.90
10316;DHT22;5203;48.976;8.306;2022-10-16T08:16:23;16.90;99.90
10316;DHT22;5203;48.976;8.306;2022-10-16T08:18:49;16.80;99.90
10316;DHT22;5203;48.976;8.306;2022-10-16T08:21:21;16.80;99.90
10316;DHT22;5203;48.976;8.306;2022-10-16T08:23:48;16.90;99.90
10316;DHT22;5203;48.976;8.306;2022-10-16T08:26:14;16.90;99.90
10316;DHT22;5203;48.976;8.306;2022-10-16T08:28:40;16.90;99.90
10316;DHT22;5203;48.976;8.306;2022-10-16T08:31:14;17.10;99.90
10316;DHT22;5203;48.976;8.306;2022-10-16T08:33:42;17.20;99.90
10316;DHT22;5203;48.976;8.306;2022-10-16T08:36:10;17.40;99.90
10316;DHT22;5203;48.976;8.306;2022-10-16T08:38:36;17.70;99.90
10316;DHT22;5203;48.976;8.306;2022-10-16T08:44:07;17.90;99.90
10316;DHT22;5203;48.976;8.306;2022-10-16T08:49:15;18.00;99.90
10316;DHT22;5203;48.976;8.306;2022-10-16T08:51:42;17.90;99.90
10316;DHT22;5203;48.976;8.306;2022-10-16T08:54:25;18.00;99.90
10316;DHT22;5203;48.976;8.306;2022-10-16T08:56:57;18.20;99.90
10316;DHT22;5203;48.976;8.306;2022-10-16T08:59:26;18.30;99.90
10316;DHT22;5203;48.976;8.306;2022-10-16T09:01:52;18.40;99.90
10316;DHT22;5203;48.976;8.306;2022-10-16T09:07:02;18.50;99.90
10316;DHT22;5203;48.976;8.306;2022-10-16T09:12:16;18.70;99.90
10316;DHT22;5203;48.976;8.306;2022-10-16T09:17:44;18.60;99.90
10316;DHT22;5203;48.976;8.306;2022-10-16T09:23:13;18.60;99.90
10316;DHT22;5203;48.976;8.306;2022-10-16T09:25:44;18.60;99.90
10316;DHT22;5203;48.976;8.306;2022-10-16T09:28:10;18.70;99.90
10316;DHT22;5203;48.976;8.306;2022-10-16T09:30:36;18.60;99.90
10316;DHT22;5203;48.976;8.306;2022-10-16T09:33:03;18.80;99.90
10316;DHT22;5203;48.976;8.306;2022-10-16T09:35:40;18.80;99.90
10316;DHT22;5203;48.976;8.306;2022-10-16T09:38:07;18.80;99.90
10316;DHT22;5203;48.976;8.306;2022-10-16T09:40:38;19.00;99.90
10316;DHT22;5203;48.976;8.306;2022-10-16T09:48:48;19.30;99.90
10316;DHT22;5203;48.976;8.306;2022-10-16T09:51:31;19.40;99.90
10316;DHT22;5203;48.976;8.306;2022-10-16T09:56:34;19.90;99.90
10316;DHT22;5203;48.976;8.306;2022-10-16T09:59:17;20.00;99.90
10316;DHT22;5203;48.976;8.306;2022-10-16T10:01:47;20.20;99.90
10316;DHT22;5203;48.976;8.306;2022-10-16T10:04:13;20.20;99.90
10316;DHT22;5203;48.976;8.306;2022-10-16T10:06:50;20.00;99.90
10316;DHT22;5203;48.976;8.306;2022-10-16T10:11:51;20.00;99.90
10316;DHT22;5203;48.976;8.306;2022-10-16T10:14:26;20.10;99.90
10316;DHT22;5203;48.976;8.306;2022-10-16T10:17:08;20.60;99.90
10316;DHT22;5203;48.976;8.306;2022-10-16T10:20:15;21.10;98.60
10316;DHT22;5203;48.976;8.306;2022-10-16T10:22:45;21.20;98.00
10316;DHT22;5203;48.976;8.306;2022-10-16T10:30:29;21.80;95.70
10316;DHT22;5203;48.976;8.306;2022-10-16T10:55:54;21.50;94.30
10316;DHT22;5203;48.976;8.306;2022-10-16T10:58:50;21.70;93.00
10316;DHT22;5203;48.976;8.306;2022-10-16T11:01:39;21.60;92.10
10316;DHT22;5203;48.976;8.306;2022-10-16T11:06:48;21.50;93.40
10316;DHT22;5203;48.976;8.306;2022-10-16T11:09:20;21.20;93.30
10316;DHT22;5203;48.976;8.306;2022-10-16T11:14:48;21.10;95.20
10316;DHT22;5203;48.976;8.306;2022-10-16T11:17:38;21.00;96.10
10316;DHT22;5203;48.976;8.306;2022-10-16T11:20:14;21.40;95.50
10316;DHT22;5203;48.976;8.306;2022-10-16T11:25:16;21.60;94.40
10316;DHT22;5203;48.976;8.306;2022-10-16T11:30:26;21.80;95.00
10316;DHT22;5203;48.976;8.306;2022-10-16T11:35:37;21.90;91.70
10316;DHT22;5203;48.976;8.306;2022-10-16T11:40:58;21.80;91.90
10316;DHT22;5203;48.976;8.306;2022-10-16T11:43:32;22.00;90.40
10316;DHT22;5203;48.976;8.306;2022-10-16T11:46:05;22.00;90.60
10316;DHT22;5203;48.976;8.306;2022-10-16T11:48:43;22.40;90.70
10316;DHT22;5203;48.976;8.306;2022-10-16T11:51:14;22.60;88.80
10316;DHT22;5203;48.976;8.306;2022-10-16T11:56:26;23.40;85.40
10316;DHT22;5203;48.976;8.306;2022-10-16T12:06:49;23.20;85.10
10316;DHT22;5203;48.976;8.306;2022-10-16T12:09:25;23.00;81.90
10316;DHT22;5203;48.976;8.306;2022-10-16T12:11:51;23.00;82.20
10316;DHT22;5203;48.976;8.306;2022-10-16T12:14:43;22.80;86.80
10316;DHT22;5203;48.976;8.306;2022-10-16T12:19:57;22.60;82.00
10316;DHT22;5203;48.976;8.306;2022-10-16T12:22:23;22.60;85.00
10316;DHT22;5203;48.976;8.306;2022-10-16T12:24:51;22.60;86.70
10316;DHT22;5203;48.976;8.306;2022-10-16T12:27:37;22.50;83.00
10316;DHT22;5203;48.976;8.306;2022-10-16T12:30:05;22.70;83.20
10316;DHT22;5203;48.976;8.306;2022-10-16T12:32:36;22.40;84.00
10316;DHT22;5203;48.976;8.306;2022-10-16T12:35:04;22.40;86.30
10316;DHT22;5203;48.976;8.306;2022-10-16T12:37:34;22.30;89.20
10316;DHT22;5203;48.976;8.306;2022-10-16T12:40:12;22.30;89.50
10316;DHT22;5203;48.976;8.306;2022-10-16T12:42:39;22.30;89.50
10316;DHT22;5203;48.976;8.306;2022-10-16T12:45:30;22.50;88.30
10316;DHT22;5203;48.976;8.306;2022-10-16T12:47:58;22.70;86.70
10316;DHT22;5203;48.976;8.306;2022-10-16T12:52:51;22.60;85.90
10316;DHT22;5203;48.976;8.306;2022-10-16T12:55:19;22.60;84.90
10316;DHT22;5203;48.976;8.306;2022-10-16T12:58:00;22.60;84.30
10316;DHT22;5203;48.976;8.306;2022-10-16T13:09:15;22.10;89.00
10316;DHT22;5203;48.976;8.306;2022-10-16T13:14:54;22.20;86.20
10316;DHT22;5203;48.976;8.306;2022-10-16T13:22:51;22.10;91.80
10316;DHT22;5203;48.976;8.306;2022-10-16T13:25:25;22.10;92.50
10316;DHT22;5203;48.976;8.306;2022-10-16T13:27:59;22.10;92.60
10316;DHT22;5203;48.976;8.306;2022-10-16T13:30:28;22.20;92.00
10316;DHT22;5203;48.976;8.306;2022-10-16T13:33:07;22.10;91.00
10316;DHT22;5203;48.976;8.306;2022-10-16T13:35:47;22.20;91.00
10316;DHT22;5203;48.976;8.306;2022-10-16T13:38:17;22.20;90.00
10316;DHT22;5203;48.976;8.306;2022-10-16T13:40:57;22.00;92.80
10316;DHT22;5203;48.976;8.306;2022-10-16T13:46:11;21.90;92.90
10316;DHT22;5203;48.976;8.306;2022-10-16T13:48:37;21.80;93.30
10316;DHT22;5203;48.976;8.306;2022-10-16T13:53:36;22.00;93.00
10316;DHT22;5203;48.976;8.306;2022-10-16T13:56:04;22.00;95.50
10316;DHT22;5203;48.976;8.306;2022-10-16T13:58:31;21.90;97.20
10316;DHT22;5203;48.976;8.306;2022-10-16T14:01:18;21.80;98.00
10316;DHT22;5203;48.976;8.306;2022-10-16T14:03:46;21.90;99.60
10316;DHT22;5203;48.976;8.306;2022-10-16T14:06:14;21.80;99.50
10316;DHT22;5203;48.976;8.306;2022-10-16T14:08:45;21.80;99.60
10316;DHT22;5203;48.976;8.306;2022-10-16T14:11:21;21.80;99.90
10316;DHT22;5203;48.976;8.306;2022-10-16T14:13:49;21.70;99.90
10316;DHT22;5203;48.976;8.306;2022-10-16T14:16:28;21.90;99.90
10316;DHT22;5203;48.976;8.306;2022-10-16T14:18:58;22.20;99.90
10316;DHT22;5203;48.976;8.306;2022-10-16T14:21:25;22.40;98.10
10316;DHT22;5203;48.976;8.306;2022-10-16T14:23:53;22.80;96.40
10316;DHT22;5203;48.976;8.306;2022-10-16T14:26:22;23.30;92.10
10316;DHT22;5203;48.976;8.306;2022-10-16T14:29:01;23.60;91.00
10316;DHT22;5203;48.976;8.306;2022-10-16T14:31:30;23.60;86.90
10316;DHT22;5203;48.976;8.306;2022-10-16T14:33:56;23.70;83.90
10316;DHT22;5203;48.976;8.306;2022-10-16T14:36:22;23.80;83.90
10316;DHT22;5203;48.976;8.306;2022-10-16T14:39:14;24.20;83.10
10316;DHT22;5203;48.976;8.306;2022-10-16T14:41:48;24.80;75.60
10316;DHT22;5203;48.976;8.306;2022-10-16T14:44:17;25.40;71.50
10316;DHT22;5203;48.976;8.306;2022-10-16T14:46:43;25.40;70.10
10316;DHT22;5203;48.976;8.306;2022-10-16T14:51:36;25.40;70.50
10316;DHT22;5203;48.976;8.306;2022-10-16T14:54:03;25.30;70.40
10316;DHT22;5203;48.976;8.306;2022-10-16T14:56:33;24.90;73.40
10316;DHT22;5203;48.976;8.306;2022-10-16T14:59:00;24.70;74.00
10316;DHT22;5203;48.976;8.306;2022-10-16T15:01:26;24.70;74.10
10316;DHT22;5203;48.976;8.306;2022-10-16T15:03:52;24.60;76.90
10316;DHT22;5203;48.976;8.306;2022-10-16T15:06:20;24.50;75.70
10316;DHT22;5203;48.976;8.306;2022-10-16T15:08:46;24.60;77.10
10316;DHT22;5203;48.976;8.306;2022-10-16T15:11:14;24.30;80.60
10316;DHT22;5203;48.976;8.306;2022-10-16T15:13:41;24.20;83.80
10316;DHT22;5203;48.976;8.306;2022-10-16T15:16:11;23.90;86.00
10316;DHT22;5203;48.976;8.306;2022-10-16T15:18:37;24.00;87.90
10316;DHT22;5203;48.976;8.306;2022-10-16T15:21:03;23.80;91.90
10316;DHT22;5203;48.976;8.306;2022-10-16T15:23:28;23.60;93.50
10316;DHT22;5203;48.976;8.306;2022-10-16T15:25:55;23.50;94.70
10316;DHT22;5203;48.976;8.306;2022-10-16T15:28:23;23.40;95.00
10316;DHT22;5203;48.976;8.306;2022-10-16T15:30:51;23.30;96.10
10316;DHT22;5203;48.976;8.306;2022-10-16T15:33:26;23.20;96.20
10316;DHT22;5203;48.976;8.306;2022-10-16T15:35:58;23.10;96.70
10316;DHT22;5203;48.976;8.306;2022-10-16T15:38:24;22.90;98.30
10316;DHT22;5203;48.976;8.306;2022-10-16T15:40:51;22.90;98.40
10316;DHT22;5203;48.976;8.306;2022-10-16T15:43:17;22.80;99.00
10316;DHT22;5203;48.976;8.306;2022-10-16T15:45:44;22.70;99.60
10316;DHT22;5203;48.976;8.306;2022-10-16T15:48:13;22.60;99.90
10316;DHT22;5203;48.976;8.306;2022-10-16T15:50:40;22.70;99.90
10316;DHT22;5203;48.976;8.306;2022-10-16T15:53:05;22.60;99.90
10316;DHT22;5203;48.976;8.306;2022-10-16T15:55:31;22.40;99.90
10316;DHT22;5203;48.976;8.306;2022-10-16T15:58:00;22.30;99.90
10316;DHT22;5203;48.976;8.306;2022-10-16T16:00:32;22.20;99.90
10316;DHT22;5203;48.976;8.306;2022-10-16T16:02:57;22.10;99.90
10316;DHT22;5203;48.976;8.306;2022-10-16T16:05:29;22.10;99.90
10316;DHT22;5203;48.976;8.306;2022-10-16T16:07:55;22.00;99.90
10316;DHT22;5203;48.976;8.306;2022-10-16T16:10:22;21.90;99.90
10316;DHT22;5203;48.976;8.306;2022-10-16T16:12:48;21.80;99.90
10316;DHT22;5203;48.976;8.306;2022-10-16T16:15:19;21.70;99.90
10316;DHT22;5203;48.976;8.306;2022-10-16T16:17:45;21.50;99.90
10316;DHT22;5203;48.976;8.306;2022-10-16T16:20:11;21.40;99.90
10316;DHT22;5203;48.976;8.306;2022-10-16T16:22:37;21.40;99.90
10316;DHT22;5203;48.976;8.306;2022-10-16T16:25:03;21.20;99.90
10316;DHT22;5203;48.976;8.306;2022-10-16T16:27:29;21.20;99.90
10316;DHT22;5203;48.976;8.306;2022-10-16T16:29:58;21.10;99.90
10316;DHT22;5203;48.976;8.306;2022-10-16T16:32:24;21.10;99.90
10316;DHT22;5203;48.976;8.306;2022-10-16T16:34:50;21.00;99.90
10316;DHT22;5203;48.976;8.306;2022-10-16T16:37:16;20.80;99.90
10316;DHT22;5203;48.976;8.306;2022-10-16T16:39:41;20.70;99.90
10316;DHT22;5203;48.976;8.306;2022-10-16T16:42:07;20.70;99.90
10316;DHT22;5203;48.976;8.306;2022-10-16T16:44:33;20.60;99.90
10316;DHT22;5203;48.976;8.306;2022-10-16T16:47:02;20.50;99.90
10316;DHT22;5203;48.976;8.306;2022-10-16T16:49:28;20.40;99.90
10316;DHT22;5203;48.976;8.306;2022-10-16T16:51:54;20.30;99.90
10316;DHT22;5203;48.976;8.306;2022-10-16T16:54:20;20.30;99.90
10316;DHT22;5203;48.976;8.306;2022-10-16T16:56:45;20.30;99.90
10316;DHT22;5203;48.976;8.306;2022-10-16T16:59:17;20.30;99.90
10316;DHT22;5203;48.976;8.306;2022-10-16T17:01:44;20.20;99.90
10316;DHT22;5203;48.976;8.306;2022-10-16T17:04:10;20.10;99.90
10316;DHT22;5203;48.976;8.306;2022-10-16T17:06:37;20.10;99.90
10316;DHT22;5203;48.976;8.306;2022-10-16T17:09:04;20.00;99.90
10316;DHT22;5203;48.976;8.306;2022-10-16T17:11:30;19.80;99.90
10316;DHT22;5203;48.976;8.306;2022-10-16T17:13:58;19.70;99.90
10316;DHT22;5203;48.976;8.306;2022-10-16T17:16:30;19.70;99.90
10316;DHT22;5203;48.976;8.306;2022-10-16T17:19:02;19.60;99.90
10316;DHT22;5203;48.976;8.306;2022-10-16T17:21:29;19.60;99.90
10316;DHT22;5203;48.976;8.306;2022-10-16T17:23:56;19.50;99.90
10316;DHT22;5203;48.976;8.306;2022-10-16T17:26:22;19.50;99.90
10316;DHT22;5203;48.976;8.306;2022-10-16T17:28:57;19.50;99.90
10316;DHT22;5203;48.976;8.306;2022-10-16T17:31:25;19.40;99.90
10316;DHT22;5203;48.976;8.306;2022-10-16T17:33:52;19.40;99.90
10316;DHT22;5203;48.976;8.306;2022-10-16T17:36:18;19.30;99.90
10316;DHT22;5203;48.976;8.306;2022-10-16T17:38:45;19.30;99.90
10316;DHT22;5203;48.976;8.306;2022-10-16T17:41:19;19.20;99.90
10316;DHT22;5203;48.976;8.306;2022-10-16T17:43:46;19.10;99.90
10316;DHT22;5203;48.976;8.306;2022-10-16T17:46:13;19.10;99.90
10316;DHT22;5203;48.976;8.306;2022-10-16T17:48:40;19.10;99.90
10316;DHT22;5203;48.976;8.306;2022-10-16T17:51:08;19.10;99.90
10316;DHT22;5203;48.976;8.306;2022-10-16T17:53:34;19.10;99.90
10316;DHT22;5203;48.976;8.306;2022-10-16T17:56:11;19.00;99.90